createdAt,value
2017-11-05T00:00:55.378Z,96.00
2017-11-05T00:03:22.894Z,95.58
2017-11-05T00:05:50.482Z,95.91
2017-11-05T00:08:18.010Z,96.41
2017-11-05T00:10:45.508Z,96.44
2017-11-05T00:13:13.027Z,95.54
2017-11-05T00:15:40.535Z,95.30
2017-11-05T00:18:08.028Z,95.27
2017-11-05T00:20:35.546Z,95.43
2017-11-05T00:23:03.078Z,95.35
2017-11-05T00:25:30.586Z,95.81
2017-11-05T00:27:58.086Z,95.84
2017-11-05T00:30:25.599Z,96.28
2017-11-05T00:32:53.131Z,96.21
2017-11-05T00:35:20.646Z,96.59
2017-11-05T00:37:48.179Z,97.22
2017-11-05T00:40:15.679Z,97.88
2017-11-05T00:42:44.622Z,97.99
2017-11-05T00:45:12.149Z,98.47
2017-11-05T00:47:39.662Z,98.41
2017-11-05T00:50:07.152Z,97.94
2017-11-05T00:52:34.701Z,97.79
2017-11-05T00:55:02.273Z,97.17
2017-11-05T00:57:29.790Z,97.02
2017-11-05T00:59:57.315Z,97.03
2017-11-05T01:02:24.819Z,96.84
2017-11-05T01:04:52.335Z,96.54
2017-11-05T01:07:19.860Z,97.43
2017-11-05T01:09:47.382Z,97.70
2017-11-05T01:12:14.883Z,97.50
2017-11-05T01:14:42.394Z,96.76
2017-11-05T01:17:09.891Z,96.73
2017-11-05T01:19:37.416Z,97.32
2017-11-05T01:22:04.943Z,97.56
2017-11-05T01:24:32.446Z,97.43
2017-11-05T01:26:59.987Z,97.34
2017-11-05T01:29:27.553Z,97.26
2017-11-05T01:31:55.041Z,97.05
2017-11-05T01:34:22.542Z,96.99
2017-11-05T01:36:50.049Z,97.24
2017-11-05T01:39:17.566Z,97.56
2017-11-05T01:41:45.075Z,98.09
2017-11-05T01:44:12.619Z,98.61
2017-11-05T01:46:40.121Z,98.92
2017-11-05T01:49:07.620Z,98.84
2017-11-05T01:51:35.117Z,98.76
2017-11-05T01:54:02.620Z,98.63
2017-11-05T01:56:30.158Z,98.85
2017-11-05T01:58:57.680Z,98.94
2017-11-05T02:01:25.170Z,99.10
2017-11-05T02:03:52.677Z,98.93
2017-11-05T02:06:20.359Z,98.66
2017-11-05T02:08:47.861Z,98.27
2017-11-05T02:11:15.368Z,97.98
2017-11-05T02:13:42.879Z,98.12
2017-11-05T02:16:10.380Z,98.29
2017-11-05T02:18:38.066Z,98.36
2017-11-05T02:21:05.566Z,98.05
2017-11-05T02:23:33.059Z,98.55
2017-11-05T02:26:00.553Z,98.90
2017-11-05T02:28:28.048Z,98.64
2017-11-05T02:30:55.583Z,98.61
2017-11-05T02:33:23.141Z,98.58
2017-11-05T02:35:50.644Z,98.59
2017-11-05T02:38:18.155Z,98.84
2017-11-05T02:40:45.675Z,98.72
2017-11-05T02:43:13.197Z,98.61
2017-11-05T02:45:40.704Z,97.60
2017-11-05T02:48:08.198Z,97.48
2017-11-05T02:50:35.689Z,98.23
2017-11-05T02:53:03.203Z,97.97
2017-11-05T02:55:30.734Z,98.24
2017-11-05T02:57:58.254Z,98.21
2017-11-05T03:00:25.758Z,98.22
2017-11-05T03:02:53.271Z,97.46
2017-11-05T03:05:20.775Z,97.77
2017-11-05T03:07:48.285Z,97.37
2017-11-05T03:10:15.811Z,97.56
2017-11-05T03:12:43.317Z,97.54
2017-11-05T03:15:10.807Z,97.77
2017-11-05T03:17:38.341Z,98.10
2017-11-05T03:20:05.841Z,98.21
2017-11-05T03:22:33.349Z,98.44
2017-11-05T03:25:00.958Z,98.65
2017-11-05T03:27:28.468Z,98.53
2017-11-05T03:29:55.978Z,98.56
2017-11-05T03:32:23.477Z,98.57
2017-11-05T03:34:50.981Z,99.15
2017-11-05T03:37:18.493Z,99.38
2017-11-05T03:39:46.028Z,99.33
2017-11-05T03:42:13.533Z,99.33
2017-11-05T03:44:41.029Z,99.21
2017-11-05T03:47:08.579Z,99.16
2017-11-05T03:49:36.212Z,99.17
2017-11-05T03:52:03.700Z,99.34
2017-11-05T03:54:31.231Z,99.31
2017-11-05T03:56:58.739Z,99.56
2017-11-05T03:59:26.239Z,99.54
2017-11-05T04:01:53.757Z,99.64
2017-11-05T04:04:21.246Z,99.69
2017-11-05T04:06:48.740Z,99.66
2017-11-05T04:09:16.241Z,99.63
2017-11-05T04:11:43.733Z,99.55
2017-11-05T04:14:11.246Z,99.72
2017-11-05T04:16:38.758Z,99.63
2017-11-05T04:19:06.270Z,99.23
2017-11-05T04:21:33.786Z,99.26
2017-11-05T04:24:01.281Z,99.24
2017-11-05T04:26:28.780Z,99.33
2017-11-05T04:28:56.289Z,99.39
2017-11-05T04:31:23.797Z,99.63
2017-11-05T04:33:51.300Z,99.86
2017-11-05T04:36:18.847Z,99.90
2017-11-05T04:38:46.403Z,100.00
2017-11-05T04:41:13.906Z,100.00
2017-11-05T04:43:41.405Z,100.00
2017-11-05T04:46:08.929Z,100.00
2017-11-05T04:48:36.440Z,100.00
2017-11-05T04:51:03.974Z,100.00
2017-11-05T04:53:31.482Z,99.74
2017-11-05T04:55:58.985Z,99.56
2017-11-05T04:58:26.494Z,99.48
2017-11-05T05:00:54.007Z,98.90
2017-11-05T05:03:21.526Z,98.51
2017-11-05T05:05:49.032Z,98.94
2017-11-05T05:08:16.530Z,99.22
2017-11-05T05:10:44.037Z,99.69
2017-11-05T05:13:11.560Z,99.85
2017-11-05T05:15:39.068Z,100.00
2017-11-05T05:18:06.577Z,100.00
2017-11-05T05:20:34.088Z,99.73
2017-11-05T05:23:01.602Z,99.68
2017-11-05T05:25:29.107Z,99.26
2017-11-05T05:27:56.610Z,99.42
2017-11-05T05:30:24.121Z,99.54
2017-11-05T05:32:51.617Z,99.59
2017-11-05T05:35:19.126Z,99.42
2017-11-05T05:37:46.626Z,99.37
2017-11-05T05:40:14.137Z,99.30
2017-11-05T05:42:41.642Z,99.12
2017-11-05T05:45:09.153Z,98.88
2017-11-05T05:47:36.666Z,99.01
2017-11-05T05:50:04.168Z,99.08
2017-11-05T05:52:31.683Z,99.27
2017-11-05T05:54:59.184Z,99.37
2017-11-05T05:57:26.698Z,99.71
2017-11-05T05:59:54.242Z,99.71
2017-11-05T06:02:21.749Z,99.56
2017-11-05T06:04:49.274Z,99.60
2017-11-05T06:07:16.803Z,99.62
2017-11-05T06:09:44.322Z,99.59
2017-11-05T06:12:11.850Z,99.42
2017-11-05T06:14:39.354Z,99.40
2017-11-05T06:17:06.859Z,99.55
2017-11-05T06:19:34.606Z,99.91
2017-11-05T06:22:02.133Z,99.96
2017-11-05T06:24:29.629Z,99.87
2017-11-05T06:26:57.163Z,100.00
2017-11-05T06:29:24.684Z,99.82
2017-11-05T06:31:53.177Z,99.87
2017-11-05T06:34:20.669Z,99.62
2017-11-05T06:36:48.157Z,99.43
2017-11-05T06:39:15.662Z,99.74
2017-11-05T06:41:43.154Z,99.76
2017-11-05T06:44:10.662Z,99.84
2017-11-05T06:46:38.160Z,99.80
2017-11-05T06:49:05.673Z,99.37
2017-11-05T06:51:33.173Z,99.50
2017-11-05T06:54:00.669Z,99.50
2017-11-05T06:56:28.170Z,99.65
2017-11-05T06:58:55.686Z,99.99
2017-11-05T07:01:23.244Z,100.00
2017-11-05T07:03:50.766Z,100.00
2017-11-05T07:06:18.283Z,100.00
2017-11-05T07:08:45.794Z,99.93
2017-11-05T07:11:13.295Z,99.83
2017-11-05T07:13:40.817Z,99.64
2017-11-05T07:16:08.325Z,99.50
2017-11-05T07:18:35.839Z,99.00
2017-11-05T07:21:03.347Z,98.45
2017-11-05T07:23:30.846Z,97.96
2017-11-05T07:25:58.435Z,98.19
2017-11-05T07:28:25.935Z,97.37
2017-11-05T07:30:53.454Z,97.90
2017-11-05T07:33:21.010Z,98.25
2017-11-05T07:35:48.538Z,98.35
2017-11-05T07:38:16.127Z,98.59
2017-11-05T07:40:43.650Z,98.40
2017-11-05T07:43:11.170Z,98.01
2017-11-05T07:45:38.692Z,98.01
2017-11-05T07:48:06.199Z,97.51
2017-11-05T07:50:33.731Z,96.56
2017-11-05T07:53:01.366Z,97.20
2017-11-05T07:55:28.862Z,97.65
2017-11-05T07:57:56.369Z,98.17
2017-11-05T08:00:23.936Z,97.84
2017-11-05T08:02:51.510Z,97.63
2017-11-05T08:05:19.033Z,97.11
2017-11-05T08:07:46.548Z,97.12
2017-11-05T08:10:14.084Z,97.14
2017-11-05T08:12:41.622Z,96.85
2017-11-05T08:15:09.135Z,96.79
2017-11-05T08:17:36.655Z,96.14
2017-11-05T08:20:04.186Z,96.23
2017-11-05T08:22:31.695Z,96.82
2017-11-05T08:24:59.202Z,96.78
2017-11-05T08:27:26.721Z,96.75
2017-11-05T08:29:54.250Z,96.71
2017-11-05T08:32:21.779Z,97.44
2017-11-05T08:34:49.298Z,97.83
2017-11-05T08:37:16.836Z,98.28
2017-11-05T08:39:44.386Z,98.73
2017-11-05T08:42:11.883Z,99.04
2017-11-05T08:44:39.388Z,98.81
2017-11-05T08:47:06.899Z,98.22
2017-11-05T08:49:34.400Z,98.15
2017-11-05T08:52:01.915Z,97.44
2017-11-05T08:54:29.434Z,98.01
2017-11-05T08:56:56.956Z,98.29
2017-11-05T08:59:24.481Z,98.69
2017-11-05T09:01:52.002Z,98.75
2017-11-05T09:04:19.519Z,99.34
2017-11-05T09:06:47.036Z,99.53
2017-11-05T09:09:14.542Z,99.44
2017-11-05T09:11:42.068Z,99.23
2017-11-05T09:14:09.605Z,98.89
2017-11-05T09:16:37.133Z,98.73
2017-11-05T09:19:04.657Z,98.48
2017-11-05T09:21:32.165Z,97.66
2017-11-05T09:24:01.582Z,97.39
2017-11-05T09:26:29.137Z,97.50
2017-11-05T09:28:56.640Z,97.32
2017-11-05T09:31:24.138Z,96.81
2017-11-05T09:33:51.669Z,97.06
2017-11-05T09:36:19.174Z,96.53
2017-11-05T09:38:46.697Z,96.93
2017-11-05T09:41:14.230Z,97.17
2017-11-05T09:43:41.831Z,97.80
2017-11-05T09:46:09.358Z,98.02
2017-11-05T09:48:36.878Z,98.19
2017-11-05T09:51:04.395Z,98.48
2017-11-05T09:53:31.916Z,97.95
2017-11-05T09:55:59.472Z,97.64
2017-11-05T09:58:26.976Z,95.98
2017-11-05T10:00:54.518Z,94.16
2017-11-05T10:03:22.017Z,93.35
2017-11-05T10:05:52.998Z,92.54
2017-11-05T10:08:20.513Z,91.95
2017-11-05T10:10:48.434Z,92.74
2017-11-05T10:13:15.937Z,91.37
2017-11-05T10:15:43.446Z,92.72
2017-11-05T10:18:10.953Z,91.99
2017-11-05T10:20:38.475Z,92.09
2017-11-05T10:23:05.974Z,91.19
2017-11-05T10:25:33.482Z,90.39
2017-11-05T10:28:01.032Z,90.79
2017-11-05T10:30:28.566Z,92.02
2017-11-05T10:32:56.127Z,93.69
2017-11-05T10:35:23.627Z,94.80
2017-11-05T10:37:51.167Z,93.15
2017-11-05T10:40:18.706Z,92.91
2017-11-05T10:42:46.203Z,91.95
2017-11-05T10:45:13.721Z,92.13
2017-11-05T10:47:41.247Z,91.95
2017-11-05T10:50:08.808Z,91.38
2017-11-05T10:52:36.307Z,90.83
2017-11-05T10:55:03.981Z,91.20
2017-11-05T10:57:31.505Z,91.53
2017-11-05T10:59:59.032Z,91.57
2017-11-05T11:02:26.534Z,92.17
2017-11-05T11:04:54.042Z,92.29
2017-11-05T11:07:21.535Z,92.52
2017-11-05T11:09:49.038Z,92.86
2017-11-05T11:12:16.546Z,92.87
2017-11-05T11:14:44.047Z,92.25
2017-11-05T11:17:11.559Z,92.34
2017-11-05T11:19:39.073Z,92.29
2017-11-05T11:22:06.571Z,92.40
2017-11-05T11:24:34.062Z,92.19
2017-11-05T11:27:01.583Z,92.77
2017-11-05T11:29:29.154Z,92.57
2017-11-05T11:31:56.658Z,91.94
2017-11-05T11:34:24.170Z,91.86
2017-11-05T11:36:51.669Z,91.89
2017-11-05T11:39:19.170Z,92.56
2017-11-05T11:41:46.679Z,92.67
2017-11-05T11:44:14.171Z,92.05
2017-11-05T11:46:42.337Z,92.38
2017-11-05T11:49:10.611Z,93.42
2017-11-05T11:51:38.455Z,91.80
2017-11-05T11:54:05.968Z,92.71
2017-11-05T11:56:33.489Z,92.07
2017-11-05T11:59:01.041Z,91.18
2017-11-05T12:01:28.542Z,92.65
2017-11-05T12:03:56.053Z,92.29
2017-11-05T12:06:23.623Z,91.89
2017-11-05T12:08:51.147Z,92.85
2017-11-05T12:11:18.678Z,92.03
2017-11-05T12:13:46.188Z,92.83
2017-11-05T12:16:13.678Z,92.37
2017-11-05T12:18:41.188Z,91.81
2017-11-05T12:21:08.679Z,93.15
2017-11-05T12:23:36.176Z,93.67
2017-11-05T12:26:03.673Z,93.27
2017-11-05T12:28:31.189Z,93.18
2017-11-05T12:30:58.676Z,92.56
2017-11-05T12:33:26.222Z,93.16
2017-11-05T12:35:53.719Z,93.99
2017-11-05T12:38:21.253Z,92.76
2017-11-05T12:40:48.780Z,93.58
2017-11-05T12:43:16.279Z,92.51
2017-11-05T12:45:43.793Z,93.69
2017-11-05T12:48:11.305Z,93.69
2017-11-05T12:50:38.826Z,92.76
2017-11-05T12:53:06.370Z,93.52
2017-11-05T12:55:33.862Z,91.59
2017-11-05T12:58:01.397Z,92.20
2017-11-05T13:00:29.032Z,92.03
2017-11-05T13:02:56.529Z,93.04
2017-11-05T13:05:24.023Z,92.37
2017-11-05T13:07:51.536Z,93.97
2017-11-05T13:10:19.054Z,94.01
2017-11-05T13:12:46.573Z,94.27
2017-11-05T13:15:14.231Z,94.19
2017-11-05T13:17:41.724Z,91.70
2017-11-05T13:20:09.225Z,90.57
2017-11-05T13:22:36.723Z,90.63
2017-11-05T13:25:04.213Z,90.46
2017-11-05T13:27:31.834Z,90.35
2017-11-05T13:29:59.339Z,89.17
2017-11-05T13:32:26.831Z,88.94
2017-11-05T13:34:54.317Z,89.38
2017-11-05T13:37:21.818Z,88.44
2017-11-05T13:39:49.358Z,89.30
2017-11-05T13:42:16.851Z,89.61
2017-11-05T13:44:44.339Z,89.99
2017-11-05T13:47:11.859Z,90.17
2017-11-05T13:49:39.360Z,89.79
2017-11-05T13:52:06.854Z,90.36
2017-11-05T13:54:34.355Z,89.51
2017-11-05T13:57:01.865Z,91.36
2017-11-05T13:59:29.434Z,89.97
2017-11-05T14:01:56.928Z,89.67
2017-11-05T14:04:24.457Z,89.90
2017-11-05T14:06:51.965Z,89.52
2017-11-05T14:09:19.448Z,89.59
2017-11-05T14:11:46.980Z,89.99
2017-11-05T14:14:14.480Z,89.74
2017-11-05T14:16:41.977Z,89.62
2017-11-05T14:19:09.508Z,89.40
2017-11-05T14:21:37.010Z,90.09
2017-11-05T14:24:04.538Z,89.47
2017-11-05T14:26:32.075Z,89.06
2017-11-05T14:28:59.565Z,88.71
2017-11-05T14:31:27.074Z,89.34
2017-11-05T14:33:54.577Z,88.77
2017-11-05T14:36:22.533Z,89.87
2017-11-05T14:38:50.071Z,89.42
2017-11-05T14:41:17.584Z,91.15
2017-11-05T14:43:45.119Z,90.29
2017-11-05T14:46:12.618Z,89.84
2017-11-05T14:48:40.149Z,89.72
2017-11-05T14:51:07.651Z,90.17
2017-11-05T14:53:35.156Z,89.28
2017-11-05T14:56:02.670Z,89.11
2017-11-05T14:58:30.214Z,89.19
2017-11-05T15:00:57.737Z,88.75
2017-11-05T15:03:25.257Z,88.27
2017-11-05T15:05:52.758Z,88.37
2017-11-05T15:08:20.277Z,87.49
2017-11-05T15:10:47.769Z,87.40
2017-11-05T15:13:15.280Z,87.53
2017-11-05T15:15:42.806Z,86.04
2017-11-05T15:18:10.343Z,88.11
2017-11-05T15:20:37.848Z,87.66
2017-11-05T15:23:05.347Z,88.00
2017-11-05T15:25:32.853Z,86.92
2017-11-05T15:28:00.360Z,87.08
2017-11-05T15:30:28.035Z,88.33
2017-11-05T15:32:55.546Z,88.78
2017-11-05T15:35:23.124Z,87.90
2017-11-05T15:37:50.710Z,88.84
2017-11-05T15:40:18.249Z,88.72
2017-11-05T15:42:45.764Z,88.12
2017-11-05T15:45:13.271Z,89.19
2017-11-05T15:47:40.784Z,89.79
2017-11-05T15:50:08.287Z,90.54
2017-11-05T15:52:35.964Z,90.05
2017-11-05T15:55:03.483Z,91.08
2017-11-05T15:57:30.982Z,90.49
2017-11-05T15:59:58.502Z,90.87
2017-11-05T16:02:26.105Z,91.40
2017-11-05T16:04:53.640Z,92.60
2017-11-05T16:07:21.214Z,90.92
2017-11-05T16:09:48.725Z,91.14
2017-11-05T16:12:17.975Z,90.80
2017-11-05T16:14:47.283Z,92.55
2017-11-05T16:17:14.794Z,92.20
2017-11-05T16:19:42.308Z,91.04
2017-11-05T16:22:09.826Z,90.72
2017-11-05T16:24:37.357Z,89.97
2017-11-05T16:27:04.862Z,89.86
2017-11-05T16:29:32.380Z,91.17
2017-11-05T16:31:59.887Z,92.01
2017-11-05T16:34:27.415Z,89.49
2017-11-05T16:36:54.931Z,89.78
2017-11-05T16:39:22.446Z,90.29
2017-11-05T16:41:49.969Z,88.24
2017-11-05T16:44:17.508Z,90.81
2017-11-05T16:46:45.031Z,90.50
2017-11-05T16:49:12.558Z,93.56
2017-11-05T16:51:40.057Z,93.88
2017-11-05T16:54:07.569Z,94.90
2017-11-05T16:56:35.059Z,95.48
2017-11-05T16:59:02.588Z,96.15
2017-11-05T17:01:30.135Z,95.29
2017-11-05T17:03:57.663Z,95.22
2017-11-05T17:06:25.174Z,95.00
2017-11-05T17:08:52.845Z,94.63
2017-11-05T17:11:20.346Z,95.27
2017-11-05T17:13:47.903Z,96.14
2017-11-05T17:16:15.731Z,96.86
2017-11-05T17:18:43.230Z,97.11
2017-11-05T17:21:12.616Z,97.71
2017-11-05T17:23:40.333Z,98.09
2017-11-05T17:26:07.862Z,98.12
2017-11-05T17:28:35.358Z,97.76
2017-11-05T17:31:02.863Z,97.78
2017-11-05T17:33:30.424Z,98.24
2017-11-05T17:35:57.947Z,98.39
2017-11-05T17:38:25.462Z,98.35
2017-11-05T17:40:52.999Z,98.31
2017-11-05T17:43:20.615Z,98.18
2017-11-05T17:45:48.132Z,98.01
2017-11-05T17:48:15.656Z,97.34
2017-11-05T17:50:44.332Z,96.15
2017-11-05T17:53:12.287Z,95.93
2017-11-05T17:55:39.818Z,96.07
2017-11-05T17:58:07.318Z,96.93
2017-11-05T18:00:34.821Z,98.11
2017-11-05T18:03:02.340Z,98.75
2017-11-05T18:05:29.846Z,98.84
2017-11-05T18:07:57.346Z,98.36
2017-11-05T18:10:24.882Z,98.60
2017-11-05T18:12:52.410Z,99.00
2017-11-05T18:15:19.917Z,99.39
2017-11-05T18:17:47.423Z,99.50
2017-11-05T18:20:15.025Z,99.19
2017-11-05T18:22:42.518Z,99.24
2017-11-05T18:25:10.063Z,99.10
2017-11-05T18:27:37.554Z,98.86
2017-11-05T18:30:05.071Z,98.83
2017-11-05T18:32:32.636Z,98.92
2017-11-05T18:35:00.130Z,98.88
2017-11-05T18:37:27.647Z,98.71
2017-11-05T18:39:55.217Z,98.60
2017-11-05T18:42:22.719Z,98.50
2017-11-05T18:44:50.271Z,98.29
2017-11-05T18:47:17.789Z,98.61
2017-11-05T18:49:45.279Z,98.83
2017-11-05T18:52:12.803Z,98.81
2017-11-05T18:54:40.323Z,98.06
2017-11-05T18:57:07.845Z,97.07
2017-11-05T18:59:35.455Z,96.50
2017-11-05T19:02:02.977Z,97.29
2017-11-05T19:04:30.493Z,97.86
2017-11-05T19:06:58.022Z,98.08
2017-11-05T19:09:25.552Z,97.93
2017-11-05T19:11:53.081Z,98.25
2017-11-05T19:14:20.585Z,98.37
2017-11-05T19:16:48.119Z,98.74
2017-11-05T19:19:15.783Z,99.19
2017-11-05T19:21:43.310Z,99.55
2017-11-05T19:24:10.877Z,99.64
2017-11-05T19:26:38.478Z,99.79
2017-11-05T19:29:05.999Z,99.48
2017-11-05T19:31:33.612Z,99.12
2017-11-05T19:34:01.126Z,99.07
2017-11-05T19:36:28.662Z,99.27
2017-11-05T19:38:56.290Z,98.95
2017-11-05T19:41:23.830Z,98.98
2017-11-05T19:43:51.388Z,99.29
2017-11-05T19:46:18.926Z,99.35
2017-11-05T19:48:46.483Z,99.91
2017-11-05T19:51:13.988Z,100.00
2017-11-05T19:53:41.514Z,100.00
2017-11-05T19:56:09.046Z,100.00
2017-11-05T19:58:36.582Z,100.00
2017-11-05T20:01:04.138Z,100.00
2017-11-05T20:03:31.774Z,99.90
2017-11-05T20:05:59.279Z,99.62
2017-11-05T20:08:26.809Z,99.59
2017-11-05T20:10:54.342Z,99.53
2017-11-05T20:13:21.875Z,99.66
2017-11-05T20:15:49.397Z,99.37
2017-11-05T20:18:16.916Z,98.98
2017-11-05T20:20:46.163Z,99.13
2017-11-05T20:23:13.718Z,99.25
2017-11-05T20:25:41.263Z,99.37
2017-11-05T20:28:09.133Z,99.14
2017-11-05T20:30:36.681Z,98.48
2017-11-05T20:33:04.209Z,97.88
2017-11-05T20:35:31.764Z,97.96
2017-11-05T20:37:59.264Z,96.92
2017-11-05T20:40:26.807Z,96.15
2017-11-05T20:42:54.402Z,97.05
2017-11-05T20:45:21.946Z,97.27
2017-11-05T20:47:49.513Z,98.02
2017-11-05T20:50:17.056Z,98.53
2017-11-05T20:52:44.611Z,98.50
2017-11-05T20:55:12.118Z,98.92
2017-11-05T20:57:39.682Z,99.29
2017-11-05T21:00:07.240Z,99.53
2017-11-05T21:02:35.145Z,99.23
2017-11-05T21:05:02.643Z,98.82
2017-11-05T21:07:30.257Z,98.73
2017-11-05T21:09:57.785Z,98.80
2017-11-05T21:12:25.284Z,98.91
2017-11-05T21:14:52.844Z,97.57
2017-11-05T21:17:20.342Z,98.02
2017-11-05T21:19:47.862Z,98.75
2017-11-05T21:22:15.364Z,98.60
2017-11-05T21:24:42.899Z,98.42
2017-11-05T21:27:10.410Z,97.70
2017-11-05T21:29:37.963Z,98.34
2017-11-05T21:32:05.472Z,98.31
2017-11-05T21:34:32.987Z,98.51
2017-11-05T21:37:00.501Z,98.51
2017-11-05T21:39:28.013Z,99.09
2017-11-05T21:41:55.570Z,98.51
2017-11-05T21:44:23.110Z,96.54
2017-11-05T21:46:50.608Z,95.24
2017-11-05T21:49:18.121Z,95.68
2017-11-05T21:51:45.626Z,95.49
2017-11-05T21:54:13.130Z,95.89
2017-11-05T21:56:40.646Z,95.17
2017-11-05T21:59:08.172Z,94.90
2017-11-05T22:08:21.565Z,97.94
2017-11-05T22:10:49.110Z,98.08
2017-11-05T22:13:16.623Z,98.08
2017-11-05T22:15:44.118Z,98.20
2017-11-05T22:18:11.612Z,98.60
2017-11-05T22:20:39.106Z,98.93
2017-11-05T22:23:06.637Z,98.66
2017-11-05T22:25:34.165Z,99.29
2017-11-05T22:28:01.699Z,99.46
2017-11-05T22:30:29.207Z,99.40
2017-11-05T22:32:56.719Z,99.58
2017-11-05T22:35:24.218Z,99.78
2017-11-05T22:37:51.721Z,99.65
2017-11-05T22:40:19.292Z,99.24
2017-11-05T22:42:47.683Z,97.50
2017-11-05T22:45:15.212Z,96.83
2017-11-05T22:47:42.722Z,97.27
2017-11-05T22:50:10.251Z,97.37
2017-11-05T22:52:37.773Z,97.19
2017-11-05T22:55:05.270Z,97.97
2017-11-05T22:57:32.758Z,98.08
2017-11-05T23:00:00.272Z,97.25
2017-11-05T23:02:27.776Z,97.61
2017-11-05T23:04:56.116Z,97.29
2017-11-05T23:07:23.635Z,97.25
2017-11-05T23:09:51.146Z,97.31
2017-11-05T23:12:18.645Z,96.09
2017-11-05T23:14:46.284Z,95.60
2017-11-05T23:17:13.789Z,97.06
2017-11-05T23:19:41.294Z,97.75
2017-11-05T23:22:08.780Z,98.23
2017-11-05T23:24:36.277Z,98.27
2017-11-05T23:27:03.790Z,97.83
2017-11-05T23:29:31.291Z,97.70
2017-11-05T23:31:58.795Z,98.04
2017-11-05T23:34:26.286Z,98.05
2017-11-05T23:36:54.249Z,98.25
2017-11-05T23:39:21.744Z,98.04
2017-11-05T23:41:49.235Z,97.96
2017-11-05T23:44:16.731Z,98.60
2017-11-05T23:46:44.232Z,98.98
2017-11-05T23:49:11.770Z,99.46
2017-11-05T23:51:39.268Z,99.61
2017-11-05T23:54:06.770Z,99.68
2017-11-05T23:56:34.271Z,99.36
2017-11-05T23:59:01.770Z,99.17
